createdAt,value
2023-04-17T05:45:57.576Z,17.00
2023-04-17T05:48:26.932Z,15.60
2023-04-17T05:50:55.324Z,16.00
2023-04-17T05:53:24.184Z,15.20
2023-04-17T05:55:56.909Z,16.50
2023-04-17T05:58:45.905Z,14.70
2023-04-17T06:01:18.211Z,16.10
2023-04-17T06:03:46.762Z,16.40
2023-04-17T06:06:19.678Z,15.70
2023-04-17T06:08:49.945Z,16.40
2023-04-17T06:11:38.275Z,16.50
2023-04-17T06:14:29.591Z,16.30
2023-04-17T06:16:58.708Z,14.70
2023-04-17T06:19:27.072Z,15.90
2023-04-17T06:21:55.329Z,16.00
2023-04-17T06:24:24.134Z,15.80
2023-04-17T06:26:52.517Z,15.80
2023-04-17T06:29:21.399Z,15.80
2023-04-17T06:35:14.434Z,16.80
2023-04-17T06:37:48.071Z,14.50
2023-04-17T06:40:15.260Z,14.60
2023-04-17T06:42:42.449Z,14.10
2023-04-17T06:45:33.634Z,16.10
2023-04-17T06:48:00.718Z,15.80
2023-04-17T06:50:28.749Z,14.70
2023-04-17T06:52:56.236Z,15.20
2023-04-17T06:55:29.689Z,13.10
2023-04-17T06:58:00.262Z,13.70
2023-04-17T07:00:27.211Z,13.20
2023-04-17T07:02:54.898Z,13.70
2023-04-17T07:05:22.015Z,12.40
2023-04-17T07:07:53.885Z,11.40
2023-04-17T07:10:21.124Z,13.10
2023-04-17T07:12:48.631Z,12.40
2023-04-17T07:15:17.399Z,13.00
2023-04-17T07:17:45.041Z,12.10
2023-04-17T07:20:12.118Z,11.60
2023-04-17T07:22:39.517Z,11.50
2023-04-17T07:25:07.370Z,10.80
2023-04-17T07:27:35.429Z,12.10
2023-04-17T07:30:08.604Z,11.30
2023-04-17T07:32:39.357Z,12.10
2023-04-17T07:35:07.121Z,9.90
2023-04-17T07:37:34.194Z,10.60
2023-04-17T07:40:01.701Z,12.80
2023-04-17T07:42:29.069Z,10.20
2023-04-17T07:44:56.832Z,10.00
2023-04-17T07:47:24.549Z,10.10
2023-04-17T07:49:51.734Z,10.20
2023-04-17T07:52:18.731Z,10.30
2023-04-17T07:54:47.058Z,8.50
2023-04-17T07:57:14.943Z,11.30
2023-04-17T07:59:42.011Z,9.40
2023-04-17T08:02:09.475Z,9.30
2023-04-17T08:04:39.786Z,9.80
2023-04-17T08:07:12.239Z,9.10
2023-04-17T08:09:41.457Z,9.70
2023-04-17T08:26:13.194Z,7.70
2023-04-17T08:28:43.109Z,8.90
2023-04-17T08:31:11.723Z,7.20
2023-04-17T08:33:40.405Z,7.80
2023-04-17T08:36:10.864Z,7.60
2023-04-17T08:38:39.739Z,7.70
2023-04-17T08:41:14.441Z,6.50
2023-04-17T08:43:43.417Z,7.30
2023-04-17T08:46:12.937Z,7.70
2023-04-17T08:48:41.583Z,8.10
2023-04-17T08:51:10.823Z,6.00
2023-04-17T08:53:42.258Z,7.20
2023-04-17T08:56:13.540Z,5.40
2023-04-17T08:58:42.213Z,7.30
2023-04-17T09:01:18.460Z,5.30
2023-04-17T09:03:48.137Z,5.20
2023-04-17T09:06:16.670Z,5.20
2023-04-17T09:09:02.406Z,6.50
2023-04-17T09:11:31.096Z,6.90
2023-04-17T09:14:01.374Z,5.60
2023-04-17T09:16:30.399Z,5.50
2023-04-17T09:19:07.065Z,5.90
2023-04-17T09:21:35.606Z,6.00
2023-04-17T09:24:05.494Z,6.70
2023-04-17T09:26:34.290Z,5.70
2023-04-17T09:29:09.518Z,7.60
2023-04-17T09:31:39.665Z,4.60
2023-04-17T09:34:12.951Z,7.20
2023-04-17T09:36:42.995Z,7.20
2023-04-17T09:39:24.799Z,7.30
2023-04-17T09:42:07.333Z,7.40
2023-04-17T09:44:40.658Z,8.80
2023-04-17T09:49:45.396Z,5.40
2023-04-17T09:52:13.880Z,6.10
2023-04-17T09:54:43.126Z,4.70
2023-04-17T09:57:11.875Z,6.80
2023-04-17T09:59:41.997Z,8.80
2023-04-17T10:02:17.595Z,7.80
2023-04-17T10:04:46.837Z,6.00
2023-04-17T10:07:16.647Z,4.30
2023-04-17T10:12:16.291Z,4.30
2023-04-17T10:14:49.098Z,3.40
2023-04-17T10:17:34.921Z,2.80
2023-04-17T10:20:17.767Z,3.70
2023-04-17T10:22:54.600Z,2.80
2023-04-17T10:25:24.464Z,2.50
2023-04-17T10:28:02.360Z,2.60
2023-04-17T10:30:51.505Z,3.10
2023-04-17T10:33:25.063Z,2.50
2023-04-17T10:35:53.339Z,3.10
2023-04-17T10:38:32.981Z,2.20
2023-04-17T10:41:03.520Z,3.30
2023-04-17T10:43:31.939Z,2.20
2023-04-17T10:46:00.364Z,2.50
2023-04-17T10:48:56.593Z,2.90
2023-04-17T10:51:29.286Z,3.50
2023-04-17T10:54:01.577Z,2.30
2023-04-17T10:56:35.533Z,2.20
2023-04-17T10:59:07.183Z,3.10
2023-04-17T11:01:47.589Z,2.60
2023-04-17T11:04:20.100Z,1.70
2023-04-17T11:06:48.514Z,2.20
2023-04-17T11:09:17.288Z,1.70
2023-04-17T11:11:48.685Z,2.10
2023-04-17T11:18:59.824Z,2.30
2023-04-17T11:35:15.487Z,4.70
2023-04-17T17:21:42.873Z,2.20
2023-04-17T17:24:11.438Z,2.40
2023-04-17T17:26:42.567Z,2.70
2023-04-17T17:29:11.189Z,2.30
2023-04-17T17:31:39.989Z,2.10
2023-04-17T17:34:22.393Z,1.90
2023-04-17T17:36:54.362Z,2.30
2023-04-17T17:39:23.716Z,2.40
2023-04-17T17:41:52.416Z,2.00
2023-04-17T17:44:23.566Z,1.90
2023-04-17T17:46:51.822Z,1.60
2023-04-17T17:49:20.441Z,3.00
2023-04-17T17:51:51.559Z,1.80
2023-04-17T17:54:19.716Z,2.20
2023-04-17T17:56:47.846Z,2.50
2023-04-17T17:59:16.390Z,1.40
2023-04-17T18:01:44.798Z,1.90
2023-04-17T18:04:13.368Z,2.10
2023-04-17T18:06:42.629Z,1.90
2023-04-17T18:09:11.012Z,2.00
2023-04-17T18:11:39.392Z,1.50
2023-04-17T18:14:07.654Z,2.20
2023-04-17T18:16:37.790Z,2.20
2023-04-17T18:19:06.873Z,2.60
2023-04-17T18:21:35.457Z,3.70
2023-04-17T18:24:03.752Z,2.60
2023-04-17T18:26:32.036Z,3.30
2023-04-17T18:29:01.006Z,2.40
2023-04-17T18:31:29.553Z,1.80
2023-04-17T18:34:02.219Z,2.40
2023-04-17T18:36:31.070Z,2.10
2023-04-17T18:38:59.198Z,2.40
2023-04-17T18:41:27.711Z,2.40
2023-04-17T18:43:56.191Z,2.40
2023-04-17T18:46:26.470Z,1.80
2023-04-17T18:48:54.514Z,3.10
2023-04-17T18:51:22.861Z,1.80
2023-04-17T18:53:51.673Z,3.00
2023-04-17T18:56:19.854Z,2.30
2023-04-17T18:58:51.415Z,1.60
2023-04-17T19:01:19.679Z,1.80
2023-04-17T19:03:48.108Z,2.70
2023-04-17T19:06:16.625Z,1.80
2023-04-17T19:08:45.293Z,2.10
2023-04-17T19:11:13.434Z,2.00
2023-04-17T19:13:42.986Z,2.40
2023-04-17T19:16:11.685Z,2.10
2023-04-17T19:18:39.817Z,3.00
2023-04-17T19:21:08.206Z,2.20
2023-04-17T19:23:37.541Z,2.10
2023-04-17T19:26:05.787Z,1.80
2023-04-17T19:28:34.027Z,2.10
2023-04-17T19:31:03.203Z,3.00
2023-04-17T19:33:32.048Z,1.80
2023-04-17T19:36:03.233Z,2.90
2023-04-17T19:38:31.904Z,2.10
2023-04-17T19:41:20.215Z,1.90
2023-04-17T19:43:51.979Z,2.90
2023-04-17T19:46:21.248Z,2.60
2023-04-17T19:48:49.937Z,2.80
2023-04-17T19:51:18.753Z,2.60
2023-04-17T19:53:48.149Z,2.70
2023-04-17T19:56:16.636Z,3.30
2023-04-17T19:58:46.298Z,3.10
2023-04-17T20:01:15.204Z,2.50
2023-04-17T20:03:45.810Z,2.90
2023-04-17T20:06:14.344Z,2.60
2023-04-17T20:08:42.825Z,3.30
2023-04-17T20:11:12.454Z,3.90
2023-04-17T20:13:41.562Z,3.50
2023-04-17T20:16:09.987Z,2.60
2023-04-17T20:18:41.990Z,3.60
2023-04-17T20:21:10.258Z,2.90
2023-04-17T20:23:38.617Z,3.20
2023-04-17T20:26:06.795Z,2.90
2023-04-17T20:28:35.198Z,2.70
2023-04-17T20:31:03.815Z,3.10
2023-04-17T20:33:35.370Z,3.30
2023-04-17T20:36:03.990Z,2.60
2023-04-17T20:38:32.398Z,2.50
2023-04-17T20:41:01.158Z,2.40
2023-04-17T20:43:31.689Z,2.60
2023-04-17T20:45:59.925Z,2.40
2023-04-17T20:48:28.505Z,2.60
2023-04-17T20:50:59.216Z,2.40
2023-04-17T20:53:27.357Z,2.40
2023-04-17T20:55:57.817Z,2.60
2023-04-17T21:01:01.375Z,2.80
2023-04-17T21:03:31.445Z,2.90
2023-04-17T21:06:00.417Z,3.40
2023-04-17T21:08:29.418Z,2.90
2023-04-17T21:10:57.681Z,2.80
2023-04-17T21:13:26.682Z,2.60
2023-04-17T21:15:55.363Z,2.90
2023-04-17T21:18:23.662Z,2.60
2023-04-17T21:20:52.002Z,2.30
2023-04-17T21:23:21.616Z,3.20
2023-04-17T21:25:52.000Z,2.60
2023-04-17T21:28:20.422Z,2.50
2023-04-17T21:30:48.706Z,3.30
2023-04-17T21:33:17.280Z,2.10
2023-04-17T21:35:46.279Z,2.10
2023-04-17T21:38:14.476Z,2.00
2023-04-17T21:40:51.117Z,2.50
2023-04-17T21:43:21.021Z,2.00
2023-04-17T21:45:52.666Z,3.00
2023-04-17T21:48:21.785Z,1.90
2023-04-17T21:50:50.189Z,1.80
2023-04-17T21:53:18.744Z,2.00
2023-04-17T21:55:46.884Z,2.50
2023-04-17T21:58:15.507Z,2.30
2023-04-17T22:00:43.916Z,3.00
2023-04-17T22:03:12.586Z,2.70
2023-04-17T22:05:42.283Z,2.70
2023-04-17T22:08:11.120Z,2.30
2023-04-17T22:10:39.373Z,3.70
2023-04-17T22:13:07.708Z,2.50
2023-04-17T22:15:35.945Z,2.20
2023-04-17T22:18:04.593Z,2.40
2023-04-17T22:20:33.104Z,2.70
2023-04-17T22:23:01.455Z,1.70
2023-04-17T22:25:29.630Z,2.60
2023-04-17T22:27:57.877Z,1.80
2023-04-17T22:30:26.469Z,2.90
2023-04-17T22:32:54.726Z,1.80
2023-04-17T22:35:23.517Z,2.50
2023-04-17T22:37:54.770Z,2.30
2023-04-17T22:40:23.069Z,2.20
2023-04-17T22:42:51.546Z,2.60
2023-04-17T22:45:20.099Z,2.70
2023-04-17T22:47:48.530Z,2.70
2023-04-17T22:50:17.882Z,2.50
2023-04-17T22:52:46.314Z,2.80
2023-04-17T22:55:14.741Z,3.10
2023-04-17T22:57:43.326Z,2.10
2023-04-17T23:00:12.433Z,4.30
2023-04-17T23:02:40.619Z,3.20
2023-04-17T23:05:09.488Z,3.00
2023-04-17T23:07:39.804Z,4.30
2023-04-17T23:10:08.689Z,3.10
2023-04-17T23:12:36.905Z,2.40
2023-04-17T23:15:08.526Z,3.10
2023-04-17T23:17:36.879Z,3.80
2023-04-17T23:20:06.073Z,3.40
2023-04-17T23:22:34.654Z,3.00
2023-04-17T23:25:03.309Z,2.70
2023-04-17T23:27:32.273Z,3.90
2023-04-17T23:30:01.052Z,3.30
2023-04-17T23:32:29.760Z,3.50
2023-04-17T23:34:58.016Z,3.50
2023-04-17T23:37:26.307Z,2.90
2023-04-17T23:47:37.722Z,3.20
2023-04-17T23:50:07.584Z,3.30
2023-04-17T23:52:36.356Z,2.60
2023-04-17T23:55:06.023Z,4.10
2023-04-17T23:57:35.688Z,5.60
